sensor_id;sensor_type;location;lat;lon;timestamp;pressure;altitude;pressure_sealevel;temperature;humidity
20710;BME280;10516;51.518;9.864;2023-03-18T00:01:03;98164.44;;;8.38;72.01
20710;BME280;10516;51.518;9.864;2023-03-18T00:03:31;98168.00;;;8.48;70.88
20710;BME280;10516;51.518;9.864;2023-03-18T00:06:01;98171.06;;;8.35;71.51
20710;BME280;10516;51.518;9.864;2023-03-18T00:08:27;98169.47;;;8.34;71.05
20710;BME280;10516;51.518;9.864;2023-03-18T00:10:53;98161.53;;;8.39;70.97
20710;BME280;10516;51.518;9.864;2023-03-18T00:13:18;98165.25;;;8.38;71.95
20710;BME280;10516;51.518;9.864;2023-03-18T00:15:43;98170.03;;;8.36;71.87
20710;BME280;10516;51.518;9.864;2023-03-18T00:18:09;98161.19;;;8.30;71.98
20710;BME280;10516;51.518;9.864;2023-03-18T00:20:34;98172.72;;;8.41;72.04
20710;BME280;10516;51.518;9.864;2023-03-18T00:23:03;98174.34;;;8.42;71.15
20710;BME280;10516;51.518;9.864;2023-03-18T00:25:28;98183.81;;;8.33;71.86
20710;BME280;10516;51.518;9.864;2023-03-18T00:27:53;98183.25;;;8.31;71.01
20710;BME280;10516;51.518;9.864;2023-03-18T00:30:19;98186.88;;;8.25;71.90
20710;BME280;10516;51.518;9.864;2023-03-18T00:32:46;98175.94;;;8.21;71.83
20710;BME280;10516;51.518;9.864;2023-03-18T00:35:11;98182.06;;;8.22;71.86
20710;BME280;10516;51.518;9.864;2023-03-18T00:37:36;98172.97;;;8.18;71.78
20710;BME280;10516;51.518;9.864;2023-03-18T00:40:05;98180.97;;;8.18;71.71
20710;BME280;10516;51.518;9.864;2023-03-18T00:42:40;98172.16;;;8.17;72.58
20710;BME280;10516;51.518;9.864;2023-03-18T00:45:11;98172.88;;;8.29;71.71
20710;BME280;10516;51.518;9.864;2023-03-18T00:47:37;98164.53;;;8.21;71.82
20710;BME280;10516;51.518;9.864;2023-03-18T00:50:03;98182.25;;;8.15;72.29
20710;BME280;10516;51.518;9.864;2023-03-18T00:52:28;98180.66;;;8.14;72.43
20710;BME280;10516;51.518;9.864;2023-03-18T00:54:54;98179.84;;;8.14;72.54
20710;BME280;10516;51.518;9.864;2023-03-18T00:57:20;98183.88;;;8.16;72.51
20710;BME280;10516;51.518;9.864;2023-03-18T00:59:46;98183.06;;;8.16;72.29
20710;BME280;10516;51.518;9.864;2023-03-18T01:02:12;98183.06;;;8.16;72.53
20710;BME280;10516;51.518;9.864;2023-03-18T01:04:37;98187.88;;;8.19;72.30
20710;BME280;10516;51.518;9.864;2023-03-18T01:07:03;98187.81;;;8.14;73.16
20710;BME280;10516;51.518;9.864;2023-03-18T01:09:29;98187.63;;;8.20;72.37
20710;BME280;10516;51.518;9.864;2023-03-18T01:11:56;98184.66;;;8.17;71.78
20710;BME280;10516;51.518;9.864;2023-03-18T01:14:21;98182.56;;;8.19;71.98
20710;BME280;10516;51.518;9.864;2023-03-18T01:16:46;98182.97;;;8.27;71.60
20710;BME280;10516;51.518;9.864;2023-03-18T01:19:12;98189.56;;;8.25;73.05
20710;BME280;10516;51.518;9.864;2023-03-18T01:21:38;98191.88;;;8.21;72.11
20710;BME280;10516;51.518;9.864;2023-03-18T01:24:03;98190.78;;;8.17;72.83
20710;BME280;10516;51.518;9.864;2023-03-18T01:26:29;98197.38;;;8.15;72.73
20710;BME280;10516;51.518;9.864;2023-03-18T01:28:54;98196.06;;;8.12;72.92
20710;BME280;10516;51.518;9.864;2023-03-18T01:31:19;98201.13;;;8.14;72.44
20710;BME280;10516;51.518;9.864;2023-03-18T01:33:45;98199.75;;;8.11;72.54
20710;BME280;10516;51.518;9.864;2023-03-18T01:36:11;98203.25;;;8.17;72.86
20710;BME280;10516;51.518;9.864;2023-03-18T01:38:37;98198.56;;;8.24;72.81
20710;BME280;10516;51.518;9.864;2023-03-18T01:41:02;98200.56;;;8.34;72.36
20710;BME280;10516;51.518;9.864;2023-03-18T01:43:29;98203.69;;;8.25;73.00
20710;BME280;10516;51.518;9.864;2023-03-18T01:45:56;98202.47;;;8.16;72.47
20710;BME280;10516;51.518;9.864;2023-03-18T01:48:23;98203.50;;;8.15;72.60
20710;BME280;10516;51.518;9.864;2023-03-18T01:50:57;98203.84;;;8.19;72.43
20710;BME280;10516;51.518;9.864;2023-03-18T01:53:24;98202.69;;;8.15;72.99
20710;BME280;10516;51.518;9.864;2023-03-18T01:55:51;98215.31;;;8.24;72.31
20710;BME280;10516;51.518;9.864;2023-03-18T01:58:20;98204.06;;;8.17;72.41
20710;BME280;10516;51.518;9.864;2023-03-18T02:01:03;98200.59;;;8.17;72.85
20710;BME280;10516;51.518;9.864;2023-03-18T02:03:31;98212.09;;;8.22;72.32
20710;BME280;10516;51.518;9.864;2023-03-18T02:05:58;98213.81;;;8.28;72.87
20710;BME280;10516;51.518;9.864;2023-03-18T02:08:24;98216.72;;;8.27;72.93
20710;BME280;10516;51.518;9.864;2023-03-18T02:10:49;98210.25;;;8.23;72.85
20710;BME280;10516;51.518;9.864;2023-03-18T02:13:14;98208.09;;;8.20;73.46
20710;BME280;10516;51.518;9.864;2023-03-18T02:16:04;98210.09;;;8.29;72.97
20710;BME280;10516;51.518;9.864;2023-03-18T02:18:32;98216.72;;;8.27;72.72
20710;BME280;10516;51.518;9.864;2023-03-18T02:23:46;98220.84;;;8.40;72.64
20710;BME280;10516;51.518;9.864;2023-03-18T02:28:44;98223.13;;;8.31;73.03
20710;BME280;10516;51.518;9.864;2023-03-18T02:31:12;98228.81;;;8.40;72.36
20710;BME280;10516;51.518;9.864;2023-03-18T02:33:39;98226.44;;;8.43;72.34
20710;BME280;10516;51.518;9.864;2023-03-18T02:36:17;98222.94;;;8.38;72.35
20710;BME280;10516;51.518;9.864;2023-03-18T02:38:43;98224.78;;;8.37;72.35
20710;BME280;10516;51.518;9.864;2023-03-18T02:41:16;98223.50;;;8.40;73.19
20710;BME280;10516;51.518;9.864;2023-03-18T02:43:43;98234.03;;;8.29;73.43
20710;BME280;10516;51.518;9.864;2023-03-18T02:48:59;98228.81;;;8.40;73.05
20710;BME280;10516;51.518;9.864;2023-03-18T02:51:25;98222.94;;;8.38;72.95
20710;BME280;10516;51.518;9.864;2023-03-18T02:53:55;98225.97;;;8.46;72.93
20710;BME280;10516;51.518;9.864;2023-03-18T02:56:22;98222.47;;;8.41;73.49
20710;BME280;10516;51.518;9.864;2023-03-18T02:58:48;98221.66;;;8.40;74.40
20710;BME280;10516;51.518;9.864;2023-03-18T03:01:13;98222.94;;;8.38;73.87
20710;BME280;10516;51.518;9.864;2023-03-18T03:03:38;98220.03;;;8.39;74.66
20710;BME280;10516;51.518;9.864;2023-03-18T03:06:04;98235.97;;;8.39;74.71
20710;BME280;10516;51.518;9.864;2023-03-18T03:08:29;98234.88;;;8.35;75.29
20710;BME280;10516;51.518;9.864;2023-03-18T03:10:55;98232.41;;;8.28;75.37
20710;BME280;10516;51.518;9.864;2023-03-18T03:13:21;98243.75;;;8.24;75.96
20710;BME280;10516;51.518;9.864;2023-03-18T03:15:47;98238.59;;;8.34;75.36
20710;BME280;10516;51.518;9.864;2023-03-18T03:18:13;98239.50;;;8.23;76.24
20710;BME280;10516;51.518;9.864;2023-03-18T03:20:39;98239.13;;;8.14;78.17
20710;BME280;10516;51.518;9.864;2023-03-18T03:23:06;98238.31;;;8.14;76.05
20710;BME280;10516;51.518;9.864;2023-03-18T03:25:32;98243.31;;;8.10;77.89
20710;BME280;10516;51.518;9.864;2023-03-18T03:27:58;98249.13;;;8.07;79.67
20710;BME280;10516;51.518;9.864;2023-03-18T03:30:24;98246.22;;;8.25;76.44
20710;BME280;10516;51.518;9.864;2023-03-18T03:32:50;98241.78;;;8.14;77.85
20710;BME280;10516;51.518;9.864;2023-03-18T03:35:17;98257.19;;;8.12;77.05
20710;BME280;10516;51.518;9.864;2023-03-18T03:37:42;98261.63;;;8.07;77.61
20710;BME280;10516;51.518;9.864;2023-03-18T03:40:11;98249.81;;;8.19;77.43
20710;BME280;10516;51.518;9.864;2023-03-18T03:42:37;98256.56;;;8.05;77.76
20710;BME280;10516;51.518;9.864;2023-03-18T03:45:03;98259.53;;;8.09;77.11
20710;BME280;10516;51.518;9.864;2023-03-18T03:47:29;98256.75;;;7.99;78.42
20710;BME280;10516;51.518;9.864;2023-03-18T03:49:55;98255.69;;;8.00;77.85
20710;BME280;10516;51.518;9.864;2023-03-18T03:52:20;98260.03;;;8.06;77.40
20710;BME280;10516;51.518;9.864;2023-03-18T03:54:45;98249.31;;;8.01;79.50
20710;BME280;10516;51.518;9.864;2023-03-18T03:57:11;98248.22;;;7.97;81.37
20710;BME280;10516;51.518;9.864;2023-03-18T03:59:36;98250.19;;;8.06;77.73
20710;BME280;10516;51.518;9.864;2023-03-18T04:02:02;98258.66;;;8.03;78.02
20710;BME280;10516;51.518;9.864;2023-03-18T04:04:27;98260.75;;;8.01;78.59
20710;BME280;10516;51.518;9.864;2023-03-18T04:06:53;98259.44;;;8.04;77.98
20710;BME280;10516;51.518;9.864;2023-03-18T04:09:18;98257.72;;;7.93;79.62
20710;BME280;10516;51.518;9.864;2023-03-18T04:11:43;98253.19;;;7.93;79.18
20710;BME280;10516;51.518;9.864;2023-03-18T04:14:09;98248.50;;;8.00;80.54
20710;BME280;10516;51.518;9.864;2023-03-18T04:16:34;98262.06;;;7.99;78.74
20710;BME280;10516;51.518;9.864;2023-03-18T04:18:59;98265.81;;;8.03;80.05
20710;BME280;10516;51.518;9.864;2023-03-18T04:21:24;98256.22;;;8.02;80.28
20710;BME280;10516;51.518;9.864;2023-03-18T04:23:49;98263.09;;;7.98;78.23
20710;BME280;10516;51.518;9.864;2023-03-18T04:26:15;98261.06;;;8.05;78.62
20710;BME280;10516;51.518;9.864;2023-03-18T04:28:40;98265.53;;;7.99;79.08
20710;BME280;10516;51.518;9.864;2023-03-18T04:31:06;98272.25;;;8.07;78.15
20710;BME280;10516;51.518;9.864;2023-03-18T04:33:31;98268.66;;;8.18;77.70
20710;BME280;10516;51.518;9.864;2023-03-18T04:35:56;98274.09;;;8.06;78.16
20710;BME280;10516;51.518;9.864;2023-03-18T04:38:22;98277.00;;;8.05;79.50
20710;BME280;10516;51.518;9.864;2023-03-18T04:40:47;98282.88;;;8.07;78.79
20710;BME280;10516;51.518;9.864;2023-03-18T04:43:12;98281.97;;;8.18;78.74
20710;BME280;10516;51.518;9.864;2023-03-18T04:45:38;98282.63;;;8.08;80.68
20710;BME280;10516;51.518;9.864;2023-03-18T04:48:04;98274.06;;;8.01;80.31
20710;BME280;10516;51.518;9.864;2023-03-18T04:50:29;98275.38;;;8.04;80.15
20710;BME280;10516;51.518;9.864;2023-03-18T04:52:55;98272.25;;;8.07;80.32
20710;BME280;10516;51.518;9.864;2023-03-18T04:55:20;98273.06;;;8.07;79.57
20710;BME280;10516;51.518;9.864;2023-03-18T04:57:46;98271.78;;;8.10;79.90
20710;BME280;10516;51.518;9.864;2023-03-18T05:00:14;98272.06;;;8.13;79.48
20710;BME280;10516;51.518;9.864;2023-03-18T05:02:39;98279.41;;;8.06;80.02
20710;BME280;10516;51.518;9.864;2023-03-18T05:05:05;98279.00;;;8.14;79.48
20710;BME280;10516;51.518;9.864;2023-03-18T05:07:31;98274.59;;;8.03;81.93
20710;BME280;10516;51.518;9.864;2023-03-18T05:09:57;98274.09;;;8.06;80.44
20710;BME280;10516;51.518;9.864;2023-03-18T05:12:22;98275.53;;;8.14;79.95
20710;BME280;10516;51.518;9.864;2023-03-18T05:14:49;98271.81;;;8.15;80.73
20710;BME280;10516;51.518;9.864;2023-03-18T05:17:15;98264.84;;;8.09;80.26
20710;BME280;10516;51.518;9.864;2023-03-18T05:19:42;98270.03;;;7.99;81.76
20710;BME280;10516;51.518;9.864;2023-03-18T05:22:07;98273.38;;;8.11;81.25
20710;BME280;10516;51.518;9.864;2023-03-18T05:24:33;98285.28;;;8.08;80.66
20710;BME280;10516;51.518;9.864;2023-03-18T05:26:58;98285.44;;;8.18;81.16
20710;BME280;10516;51.518;9.864;2023-03-18T05:29:24;98282.41;;;8.10;82.17
20710;BME280;10516;51.518;9.864;2023-03-18T05:31:51;98274.28;;;8.00;82.93
20710;BME280;10516;51.518;9.864;2023-03-18T05:34:16;98273.78;;;8.03;81.95
20710;BME280;10516;51.518;9.864;2023-03-18T05:36:41;98271.94;;;8.03;82.26
20710;BME280;10516;51.518;9.864;2023-03-18T05:39:06;98277.19;;;7.98;81.28
20710;BME280;10516;51.518;9.864;2023-03-18T05:41:32;98280.09;;;7.97;81.49
20710;BME280;10516;51.518;9.864;2023-03-18T05:43:58;98277.66;;;7.95;81.91
20710;BME280;10516;51.518;9.864;2023-03-18T05:46:23;98278.19;;;7.92;81.19
20710;BME280;10516;51.518;9.864;2023-03-18T05:48:48;98273.66;;;7.93;81.07
20710;BME280;10516;51.518;9.864;2023-03-18T05:51:13;98274.72;;;7.92;81.17
20710;BME280;10516;51.518;9.864;2023-03-18T05:53:38;98290.19;;;7.95;81.30
20710;BME280;10516;51.518;9.864;2023-03-18T05:56:05;98288.00;;;7.92;81.84
20710;BME280;10516;51.518;9.864;2023-03-18T05:58:31;98294.34;;;7.91;81.47
20710;BME280;10516;51.518;9.864;2023-03-18T06:00:57;98293.22;;;7.87;81.89
20710;BME280;10516;51.518;9.864;2023-03-18T06:03:24;98287.44;;;7.90;81.65
20710;BME280;10516;51.518;9.864;2023-03-18T06:05:49;98296.78;;;7.92;80.48
20710;BME280;10516;51.518;9.864;2023-03-18T06:08:14;98294.34;;;7.91;80.63
20710;BME280;10516;51.518;9.864;2023-03-18T06:10:41;98307.31;;;7.87;81.80
20710;BME280;10516;51.518;9.864;2023-03-18T06:13:07;98313.44;;;7.88;81.12
20710;BME280;10516;51.518;9.864;2023-03-18T06:15:34;98317.66;;;7.84;80.72
20710;BME280;10516;51.518;9.864;2023-03-18T06:17:59;98320.59;;;7.87;80.91
20710;BME280;10516;51.518;9.864;2023-03-18T06:20:24;98319.31;;;7.90;80.07
20710;BME280;10516;51.518;9.864;2023-03-18T06:22:50;98323.50;;;7.86;80.38
20710;BME280;10516;51.518;9.864;2023-03-18T06:25:19;98325.19;;;7.92;81.16
20710;BME280;10516;51.518;9.864;2023-03-18T06:27:45;98329.22;;;7.94;80.26
20710;BME280;10516;51.518;9.864;2023-03-18T06:30:12;98324.06;;;7.88;81.17
20710;BME280;10516;51.518;9.864;2023-03-18T06:32:37;98332.63;;;7.73;84.34
20710;BME280;10516;51.518;9.864;2023-03-18T06:35:04;98321.97;;;7.90;81.13
20710;BME280;10516;51.518;9.864;2023-03-18T06:37:29;98319.97;;;7.97;80.80
20710;BME280;10516;51.518;9.864;2023-03-18T06:39:55;98325.50;;;7.95;82.15
20710;BME280;10516;51.518;9.864;2023-03-18T06:42:20;98324.22;;;7.98;82.40
20710;BME280;10516;51.518;9.864;2023-03-18T06:44:45;98317.22;;;7.92;85.40
20710;BME280;10516;51.518;9.864;2023-03-18T06:47:16;98327.97;;;8.02;82.34
20710;BME280;10516;51.518;9.864;2023-03-18T06:49:41;98320.81;;;8.02;85.00
20710;BME280;10516;51.518;9.864;2023-03-18T06:52:06;98329.13;;;8.06;82.53
20710;BME280;10516;51.518;9.864;2023-03-18T06:54:31;98332.78;;;8.21;80.21
20710;BME280;10516;51.518;9.864;2023-03-18T06:56:58;98324.25;;;8.19;80.84
20710;BME280;10516;51.518;9.864;2023-03-18T06:59:24;98334.50;;;8.27;82.74
20710;BME280;10516;51.518;9.864;2023-03-18T07:01:49;98334.31;;;8.34;81.94
20710;BME280;10516;51.518;9.864;2023-03-18T07:04:14;98343.16;;;8.40;82.91
20710;BME280;10516;51.518;9.864;2023-03-18T07:06:40;98346.00;;;8.55;81.23
20710;BME280;10516;51.518;9.864;2023-03-18T07:09:05;98352.94;;;8.56;81.41
20710;BME280;10516;51.518;9.864;2023-03-18T07:11:30;98357.09;;;8.68;81.59
20710;BME280;10516;51.518;9.864;2023-03-18T07:13:55;98344.44;;;8.80;81.70
20710;BME280;10516;51.518;9.864;2023-03-18T07:16:21;98357.50;;;8.82;82.85
20710;BME280;10516;51.518;9.864;2023-03-18T07:18:46;98360.72;;;8.84;82.71
20710;BME280;10516;51.518;9.864;2023-03-18T07:21:11;98363.13;;;8.85;83.19
20710;BME280;10516;51.518;9.864;2023-03-18T07:23:37;98358.72;;;8.96;84.21
20710;BME280;10516;51.518;9.864;2023-03-18T07:26:03;98367.81;;;9.00;81.12
20710;BME280;10516;51.518;9.864;2023-03-18T07:28:28;98370.47;;;9.00;86.18
20710;BME280;10516;51.518;9.864;2023-03-18T07:30:53;98363.84;;;9.02;81.95
20710;BME280;10516;51.518;9.864;2023-03-18T07:33:19;98363.84;;;9.02;81.83
20710;BME280;10516;51.518;9.864;2023-03-18T07:35:44;98363.06;;;9.02;82.28
20710;BME280;10516;51.518;9.864;2023-03-18T07:38:09;98369.31;;;9.13;81.51
20710;BME280;10516;51.518;9.864;2023-03-18T07:40:35;98376.94;;;9.04;83.29
20710;BME280;10516;51.518;9.864;2023-03-18T07:43:01;98382.25;;;9.04;83.56
20710;BME280;10516;51.518;9.864;2023-03-18T07:45:27;98384.16;;;9.09;84.87
20710;BME280;10516;51.518;9.864;2023-03-18T07:47:53;98374.16;;;9.21;86.46
20710;BME280;10516;51.518;9.864;2023-03-18T07:50:18;98374.44;;;9.19;84.29
20710;BME280;10516;51.518;9.864;2023-03-18T07:52:43;98372.50;;;9.15;84.27
20710;BME280;10516;51.518;9.864;2023-03-18T07:55:09;98379.75;;;9.19;85.73
20710;BME280;10516;51.518;9.864;2023-03-18T07:57:34;98392.00;;;9.20;86.40
20710;BME280;10516;51.518;9.864;2023-03-18T08:00:00;98381.06;;;9.17;85.27
20710;BME280;10516;51.518;9.864;2023-03-18T08:02:26;98387.97;;;9.18;85.66
20710;BME280;10516;51.518;9.864;2023-03-18T08:04:52;98387.47;;;9.21;87.31
20710;BME280;10516;51.518;9.864;2023-03-18T08:07:17;98388.03;;;9.23;85.77
20710;BME280;10516;51.518;9.864;2023-03-18T08:09:43;98392.88;;;9.26;86.34
20710;BME280;10516;51.518;9.864;2023-03-18T08:12:08;98392.59;;;9.27;85.51
20710;BME280;10516;51.518;9.864;2023-03-18T08:14:34;98391.31;;;9.30;86.43
20710;BME280;10516;51.518;9.864;2023-03-18T08:16:59;98394.25;;;9.33;86.46
20710;BME280;10516;51.518;9.864;2023-03-18T08:19:25;98398.03;;;9.37;86.04
20710;BME280;10516;51.518;9.864;2023-03-18T08:21:51;98399.38;;;9.40;85.84
20710;BME280;10516;51.518;9.864;2023-03-18T08:24:16;98397.53;;;9.40;86.35
20710;BME280;10516;51.518;9.864;2023-03-18T08:26:42;98405.59;;;9.45;86.26
20710;BME280;10516;51.518;9.864;2023-03-18T08:29:07;98409.09;;;9.51;86.36
20710;BME280;10516;51.518;9.864;2023-03-18T08:31:32;98410.94;;;9.50;86.16
20710;BME280;10516;51.518;9.864;2023-03-18T08:33:58;98411.47;;;9.52;86.54
20710;BME280;10516;51.518;9.864;2023-03-18T08:36:23;98402.75;;;9.57;86.92
20710;BME280;10516;51.518;9.864;2023-03-18T08:38:49;98407.56;;;9.60;86.36
20710;BME280;10516;51.518;9.864;2023-03-18T08:41:14;98413.91;;;9.54;85.68
20710;BME280;10516;51.518;9.864;2023-03-18T08:43:41;98413.19;;;9.63;86.12
20710;BME280;10516;51.518;9.864;2023-03-18T08:46:07;98404.72;;;10.03;86.24
20710;BME280;10516;51.518;9.864;2023-03-18T08:48:33;98416.13;;;10.25;84.66
20710;BME280;10516;51.518;9.864;2023-03-18T08:51:01;98407.91;;;10.32;84.55
20710;BME280;10516;51.518;9.864;2023-03-18T08:53:27;98410.34;;;10.38;83.92
20710;BME280;10516;51.518;9.864;2023-03-18T08:55:52;98410.34;;;10.38;83.55
20710;BME280;10516;51.518;9.864;2023-03-18T08:58:17;98413.06;;;10.43;82.78
20710;BME280;10516;51.518;9.864;2023-03-18T09:00:42;98427.78;;;10.56;82.51
20710;BME280;10516;51.518;9.864;2023-03-18T09:03:08;98418.97;;;10.55;82.24
20710;BME280;10516;51.518;9.864;2023-03-18T09:05:33;98429.38;;;10.52;81.84
20710;BME280;10516;51.518;9.864;2023-03-18T09:07:59;98423.84;;;10.69;82.57
20710;BME280;10516;51.518;9.864;2023-03-18T09:10:24;98424.13;;;10.67;81.92
20710;BME280;10516;51.518;9.864;2023-03-18T09:12:49;98432.94;;;10.73;81.52
20710;BME280;10516;51.518;9.864;2023-03-18T09:15:15;98424.69;;;10.74;81.72
20710;BME280;10516;51.518;9.864;2023-03-18T09:17:41;98429.78;;;10.76;82.12
20710;BME280;10516;51.518;9.864;2023-03-18T09:20:07;98430.31;;;10.78;82.11
20710;BME280;10516;51.518;9.864;2023-03-18T09:22:34;98426.59;;;10.79;81.87
20710;BME280;10516;51.518;9.864;2023-03-18T09:24:59;98432.78;;;10.89;81.48
20710;BME280;10516;51.518;9.864;2023-03-18T09:27:25;98435.44;;;10.89;81.22
20710;BME280;10516;51.518;9.864;2023-03-18T09:29:50;98433.09;;;11.03;81.19
20710;BME280;10516;51.518;9.864;2023-03-18T09:32:16;98432.63;;;11.16;80.92
20710;BME280;10516;51.518;9.864;2023-03-18T09:34:41;98428.34;;;11.25;80.59
20710;BME280;10516;51.518;9.864;2023-03-18T09:37:08;98432.13;;;11.29;80.68
20710;BME280;10516;51.518;9.864;2023-03-18T09:39:34;98434.81;;;11.29;80.62
20710;BME280;10516;51.518;9.864;2023-03-18T09:42:03;98434.28;;;11.37;80.69
20710;BME280;10516;51.518;9.864;2023-03-18T09:44:33;98440.63;;;11.16;80.67
20710;BME280;10516;51.518;9.864;2023-03-18T09:47:16;98438.50;;;11.18;81.40
20710;BME280;10516;51.518;9.864;2023-03-18T09:54:58;98449.78;;;11.40;79.32
20710;BME280;10516;51.518;9.864;2023-03-18T09:57:27;98440.44;;;11.38;79.43
20710;BME280;10516;51.518;9.864;2023-03-18T09:59:59;98441.25;;;11.48;79.16
20710;BME280;10516;51.518;9.864;2023-03-18T10:02:36;98441.50;;;11.47;78.64
20710;BME280;10516;51.518;9.864;2023-03-18T10:05:08;98438.34;;;11.60;79.13
20710;BME280;10516;51.518;9.864;2023-03-18T10:07:36;98437.06;;;11.82;78.96
20710;BME280;10516;51.518;9.864;2023-03-18T10:10:26;98439.72;;;11.77;77.58
20710;BME280;10516;51.518;9.864;2023-03-18T10:12:51;98448.31;;;11.94;77.14
20710;BME280;10516;51.518;9.864;2023-03-18T10:15:35;98446.97;;;12.02;77.57
20710;BME280;10516;51.518;9.864;2023-03-18T10:25:28;98448.56;;;12.23;76.29
20710;BME280;10516;51.518;9.864;2023-03-18T10:30:52;98450.44;;;12.28;75.32
20710;BME280;10516;51.518;9.864;2023-03-18T10:38:43;98456.84;;;12.47;74.40
20710;BME280;10516;51.518;9.864;2023-03-18T10:41:52;98453.34;;;12.56;75.32
20710;BME280;10516;51.518;9.864;2023-03-18T10:44:00;98458.13;;;12.79;75.05
20710;BME280;10516;51.518;9.864;2023-03-18T10:46:26;98453.84;;;12.78;73.96
20710;BME280;10516;51.518;9.864;2023-03-18T10:48:53;98451.63;;;12.96;74.09
20710;BME280;10516;51.518;9.864;2023-03-18T10:54:03;98460.56;;;12.71;73.29
20710;BME280;10516;51.518;9.864;2023-03-18T10:56:31;98457.88;;;12.71;73.94
20710;BME280;10516;51.518;9.864;2023-03-18T10:58:59;98458.13;;;12.74;73.40
20710;BME280;10516;51.518;9.864;2023-03-18T11:01:25;98457.31;;;12.74;73.36
20710;BME280;10516;51.518;9.864;2023-03-18T11:03:53;98462.69;;;12.69;73.11
20710;BME280;10516;51.518;9.864;2023-03-18T11:09:10;98450.88;;;12.85;72.95
20710;BME280;10516;51.518;9.864;2023-03-18T11:11:41;98457.03;;;12.86;72.62
20710;BME280;10516;51.518;9.864;2023-03-18T11:14:09;98451.91;;;13.09;72.60
20710;BME280;10516;51.518;9.864;2023-03-18T11:19:58;98452.56;;;13.40;71.74
20710;BME280;10516;51.518;9.864;2023-03-18T11:24:36;98440.59;;;13.22;71.79
20710;BME280;10516;51.518;9.864;2023-03-18T11:29:40;98443.06;;;13.63;70.74
20710;BME280;10516;51.518;9.864;2023-03-18T11:32:10;98441.84;;;13.84;70.80
20710;BME280;10516;51.518;9.864;2023-03-18T11:34:46;98440.09;;;13.98;70.06
20710;BME280;10516;51.518;9.864;2023-03-18T11:37:18;98439.16;;;13.84;70.31
20710;BME280;10516;51.518;9.864;2023-03-18T11:39:43;98441.59;;;13.80;69.87
20710;BME280;10516;51.518;9.864;2023-03-18T11:42:19;98443.66;;;13.93;69.23
20710;BME280;10516;51.518;9.864;2023-03-18T11:44:46;98440.75;;;13.85;69.03
20710;BME280;10516;51.518;9.864;2023-03-18T11:47:13;98437.00;;;13.86;68.00
20710;BME280;10516;51.518;9.864;2023-03-18T11:49:41;98423.97;;;14.03;67.65
20710;BME280;10516;51.518;9.864;2023-03-18T11:55:03;98425.47;;;14.19;68.53
20710;BME280;10516;51.518;9.864;2023-03-18T12:05:32;98428.91;;;14.53;66.74
20710;BME280;10516;51.518;9.864;2023-03-18T12:10:33;98427.59;;;14.51;66.24
20710;BME280;10516;51.518;9.864;2023-03-18T12:18:20;98418.97;;;15.01;64.10
20710;BME280;10516;51.518;9.864;2023-03-18T12:20:48;98409.84;;;15.02;64.84
20710;BME280;10516;51.518;9.864;2023-03-18T12:26:06;98414.63;;;15.05;65.82
20710;BME280;10516;51.518;9.864;2023-03-18T12:34:00;98413.69;;;14.96;63.54
20710;BME280;10516;51.518;9.864;2023-03-18T12:47:02;98414.25;;;15.35;63.42
20710;BME280;10516;51.518;9.864;2023-03-18T12:52:07;98407.91;;;15.50;63.83
20710;BME280;10516;51.518;9.864;2023-03-18T12:54:44;98412.41;;;15.54;63.51
20710;BME280;10516;51.518;9.864;2023-03-18T12:57:13;98406.28;;;15.49;62.62
20710;BME280;10516;51.518;9.864;2023-03-18T12:59:59;98407.09;;;15.49;62.04
20710;BME280;10516;51.518;9.864;2023-03-18T13:02:39;98408.53;;;15.60;62.81
20710;BME280;10516;51.518;9.864;2023-03-18T13:08:18;98409.91;;;15.58;62.55
20710;BME280;10516;51.518;9.864;2023-03-18T13:10:38;98411.75;;;15.44;62.31
20710;BME280;10516;51.518;9.864;2023-03-18T13:13:05;98420.41;;;15.36;62.79
20710;BME280;10516;51.518;9.864;2023-03-18T13:15:32;98412.09;;;15.14;63.83
20710;BME280;10516;51.518;9.864;2023-03-18T13:18:04;98422.50;;;15.20;63.70
20710;BME280;10516;51.518;9.864;2023-03-18T13:20:35;98406.81;;;15.27;64.24
20710;BME280;10516;51.518;9.864;2023-03-18T13:33:25;98405.38;;;15.91;63.77
20710;BME280;10516;51.518;9.864;2023-03-18T13:38:55;98409.72;;;16.37;63.16
20710;BME280;10516;51.518;9.864;2023-03-18T13:43:56;98410.22;;;16.85;59.41
20710;BME280;10516;51.518;9.864;2023-03-18T13:46:24;98403.44;;;17.01;58.69
20710;BME280;10516;51.518;9.864;2023-03-18T13:48:55;98412.41;;;16.97;58.86
20710;BME280;10516;51.518;9.864;2023-03-18T13:53:49;98410.28;;;17.21;58.42
20710;BME280;10516;51.518;9.864;2023-03-18T14:01:57;98412.09;;;17.12;59.24
20710;BME280;10516;51.518;9.864;2023-03-18T14:04:30;98413.69;;;16.99;58.65
20710;BME280;10516;51.518;9.864;2023-03-18T14:07:11;98407.47;;;16.58;58.87
20710;BME280;10516;51.518;9.864;2023-03-18T14:09:50;98403.47;;;16.56;58.62
20710;BME280;10516;51.518;9.864;2023-03-18T14:12:21;98406.69;;;16.71;59.19
20710;BME280;10516;51.518;9.864;2023-03-18T14:17:21;98411.00;;;16.86;58.62
20710;BME280;10516;51.518;9.864;2023-03-18T14:19:51;98408.50;;;16.76;58.76
20710;BME280;10516;51.518;9.864;2023-03-18T14:24:45;98406.69;;;16.71;59.35
20710;BME280;10516;51.518;9.864;2023-03-18T14:27:16;98403.00;;;16.67;59.29
20710;BME280;10516;51.518;9.864;2023-03-18T14:29:43;98408.78;;;16.61;59.52
20710;BME280;10516;51.518;9.864;2023-03-18T14:32:54;98408.19;;;16.64;59.40
20710;BME280;10516;51.518;9.864;2023-03-18T14:34:55;98400.59;;;16.52;59.18
20710;BME280;10516;51.518;9.864;2023-03-18T14:37:23;98394.88;;;16.40;59.80
20710;BME280;10516;51.518;9.864;2023-03-18T14:39:50;98400.72;;;16.28;61.11
20710;BME280;10516;51.518;9.864;2023-03-18T14:42:26;98398.16;;;16.37;60.00
20710;BME280;10516;51.518;9.864;2023-03-18T14:44:54;98398.63;;;16.58;59.40
20710;BME280;10516;51.518;9.864;2023-03-18T14:50:04;98385.84;;;16.77;59.29
20710;BME280;10516;51.518;9.864;2023-03-18T14:52:37;98385.03;;;16.90;59.12
20710;BME280;10516;51.518;9.864;2023-03-18T14:55:05;98372.16;;;17.00;58.99
20710;BME280;10516;51.518;9.864;2023-03-18T14:57:31;98378.13;;;16.97;58.91
20710;BME280;10516;51.518;9.864;2023-03-18T14:59:57;98381.63;;;16.98;59.00
20710;BME280;10516;51.518;9.864;2023-03-18T15:02:26;98369.94;;;17.02;58.26
20710;BME280;10516;51.518;9.864;2023-03-18T15:04:55;98376.06;;;16.94;58.37